Time;durP1;ratioP1;P1;durP2;ratioP2;P2;SDS_P1;SDS_P2;PMS_P1;PMS_P2;Temp;Humidity;BMP_temperature;BMP_pressure;BME280_temperature;BME280_humidity;BME280_pressure;Samples;Min_cycle;Max_cycle;Signal;HPM_P1;HPM_P2
2023/10/31 00:01:29;;;;;;;7.55;2.80;;;;;;;10.23;100.00;93291.44;5072331;28;20040;-75
2023/10/31 00:03:56;;;;;;;9.20;3.45;;;;;;;10.24;100.00;93295.59;5071104;28;20497;-75
2023/10/31 00:06:24;;;;;;;7.20;3.45;;;;;;;10.15;100.00;93289.91;5068696;28;20053;-75
2023/10/31 00:08:52;;;;;;;7.82;3.40;;;;;;;10.07;100.00;93283.22;5068661;28;20055;-75
2023/10/31 00:11:18;;;;;;;5.75;3.15;;;;;;;9.99;100.00;93286.00;5069632;28;20056;-75
2023/10/31 00:13:45;;;;;;;6.28;3.20;;;;;;;9.91;100.00;93284.47;5071329;28;20045;-75
2023/10/31 00:16:12;;;;;;;6.40;3.08;;;;;;;9.70;100.00;93272.69;5066069;28;20443;-76
2023/10/31 00:18:38;;;;;;;6.88;3.97;;;;;;;9.69;100.00;93273.69;5068525;28;20045;-75
2023/10/31 00:21:05;;;;;;;9.38;3.83;;;;;;;9.64;100.00;93274.31;5063805;28;20639;-75
2023/10/31 00:23:33;;;;;;;7.07;3.30;;;;;;;9.64;100.00;93264.03;5064321;28;20041;-75
2023/10/31 00:26:00;;;;;;;5.28;3.30;;;;;;;9.74;100.00;93276.44;5065519;28;20044;-76
2023/10/31 00:28:27;;;;;;;6.72;2.95;;;;;;;9.78;100.00;93271.69;5061850;28;20094;-76
2023/10/31 00:30:55;;;;;;;7.38;3.22;;;;;;;9.74;100.00;93251.59;5061779;28;20048;-75
2023/10/31 00:33:21;;;;;;;6.10;3.45;;;;;;;9.47;100.00;93220.09;5067200;28;20052;-75
2023/10/31 00:35:48;;;;;;;7.25;3.47;;;;;;;9.73;100.00;93265.38;5068947;28;20045;-75
2023/10/31 00:38:15;;;;;;;6.40;3.50;;;;;;;9.73;100.00;93256.91;5071851;28;20097;-75
2023/10/31 00:40:43;;;;;;;9.60;3.85;;;;;;;9.71;100.00;93258.88;5068366;28;20094;-76
2023/10/31 00:43:09;;;;;;;7.80;3.30;;;;;;;9.70;100.00;93252.97;5068832;28;20694;-75
2023/10/31 00:45:36;;;;;;;7.72;3.85;;;;;;;9.66;100.00;93254.34;5068319;28;20097;-75
2023/10/31 00:48:03;;;;;;;8.27;3.75;;;;;;;9.52;100.00;93247.69;5072220;28;20048;-75
2023/10/31 00:50:30;;;;;;;6.75;3.15;;;;;;;9.54;100.00;93259.31;5071224;28;20105;-75
2023/10/31 00:52:56;;;;;;;7.65;3.72;;;;;;;9.44;100.00;93235.91;5067752;28;20669;-75
2023/10/31 00:55:23;;;;;;;6.97;3.20;;;;;;;9.47;100.00;93243.16;5067172;28;20215;-75
2023/10/31 00:57:51;;;;;;;7.50;3.25;;;;;;;9.49;100.00;93244.53;5069302;28;20055;-75
2023/10/31 01:00:19;;;;;;;6.75;3.15;;;;;;;9.37;100.00;93230.78;5069028;28;20554;-75
2023/10/31 01:02:45;;;;;;;7.03;3.45;;;;;;;9.46;100.00;93239.03;5069536;28;20078;-75
2023/10/31 01:05:12;;;;;;;8.85;3.28;;;;;;;9.30;100.00;93220.53;5068642;28;20048;-75
2023/10/31 01:07:39;;;;;;;6.35;3.58;;;;;;;9.31;100.00;93229.03;5068311;28;20098;-75
2023/10/31 01:10:06;;;;;;;7.55;3.22;;;;;;;9.27;100.00;93238.88;5067994;28;20524;-75
2023/10/31 01:12:34;;;;;;;7.47;3.97;;;;;;;9.04;100.00;93226.50;5068283;28;20119;-75
2023/10/31 01:15:02;;;;;;;6.97;3.50;;;;;;;9.06;100.00;93222.75;5072104;28;20044;-75
2023/10/31 01:17:28;;;;;;;7.43;3.50;;;;;;;9.01;100.00;93226.88;5068977;28;20573;-75
2023/10/31 01:19:55;;;;;;;10.07;3.85;;;;;;;9.12;100.00;93225.50;5068580;28;20451;-75
2023/10/31 01:22:22;;;;;;;5.93;3.00;;;;;;;9.13;100.00;93227.88;5067522;28;20048;-75
2023/10/31 01:24:48;;;;;;;7.30;3.58;;;;;;;9.09;100.00;93224.13;5067043;28;20094;-75
2023/10/31 01:27:15;;;;;;;7.05;3.28;;;;;;;9.03;100.00;93212.88;5069581;28;20048;-75
2023/10/31 01:29:42;;;;;;;8.07;3.72;;;;;;;8.96;100.00;93204.44;5066954;28;20105;-75
2023/10/31 01:32:10;;;;;;;7.22;3.65;;;;;;;9.07;100.00;93221.75;5067047;28;20554;-75
2023/10/31 01:34:36;;;;;;;4.47;2.97;;;;;;;9.06;100.00;93224.53;5066945;28;20044;-75
2023/10/31 01:37:03;;;;;;;9.25;3.47;;;;;;;9.06;100.00;93219.41;5065474;28;20044;-75
2023/10/31 01:39:30;;;;;;;4.78;3.00;;;;;;;9.12;100.00;93215.25;5068175;28;20048;-75
2023/10/31 01:41:57;;;;;;;6.28;3.13;;;;;;;9.11;100.00;93216.25;5067038;28;20052;-75
2023/10/31 01:44:23;;;;;;;11.00;3.45;;;;;;;9.13;100.00;93220.19;5067294;28;20377;-75
2023/10/31 01:46:50;;;;;;;8.05;3.22;;;;;;;9.16;100.00;93217.22;5069715;28;20098;-75
2023/10/31 01:49:18;;;;;;;11.82;2.95;;;;;;;9.17;100.00;93216.22;5069320;28;20110;-75
2023/10/31 01:51:45;;;;;;;6.40;2.83;;;;;;;9.17;100.00;93212.88;5069779;28;20044;-75
2023/10/31 01:54:13;;;;;;;6.03;3.38;;;;;;;9.14;100.00;93201.25;5069378;28;20045;-75
2023/10/31 01:56:40;;;;;;;6.15;3.38;;;;;;;9.16;100.00;93204.41;5066156;28;20102;-75
2023/10/31 01:59:07;;;;;;;10.70;3.53;;;;;;;9.02;100.00;93179.81;5066725;28;20402;-75
2023/10/31 02:01:39;;;;;;;9.13;3.78;;;;;;;9.20;100.00;93204.78;5063144;28;20045;-76
2023/10/31 02:04:06;;;;;;;7.07;3.15;;;;;;;9.14;100.00;93198.69;5064782;28;20040;-76
2023/10/31 02:06:34;;;;;;;6.15;3.05;;;;;;;9.20;100.00;93204.78;5064962;28;20044;-75
2023/10/31 02:09:01;;;;;;;5.70;3.30;;;;;;;9.19;100.00;93204.00;5066306;28;20056;-76
2023/10/31 02:11:28;;;;;;;7.97;3.20;;;;;;;9.09;100.00;93191.59;5066219;28;20049;-82
2023/10/31 02:13:55;;;;;;;10.55;3.67;;;;;;;9.16;100.00;93196.72;5068113;28;20037;-77
2023/10/31 02:16:21;;;;;;;7.88;2.92;;;;;;;9.21;100.00;93199.47;5069461;28;20483;-77
2023/10/31 02:18:48;;;;;;;9.63;3.70;;;;;;;9.15;100.00;93194.34;5066410;28;20048;-77
2023/10/31 02:21:15;;;;;;;7.15;3.15;;;;;;;9.16;100.00;93194.16;5071127;28;20059;-77
2023/10/31 02:23:43;;;;;;;5.25;3.05;;;;;;;9.16;100.00;93190.81;5063479;28;20571;-77
2023/10/31 02:26:10;;;;;;;7.65;3.28;;;;;;;9.20;100.00;93197.09;5066016;28;20543;-77
2023/10/31 02:28:36;;;;;;;8.98;4.68;;;;;;;9.14;100.00;93195.34;5071428;28;20045;-77
2023/10/31 02:31:03;;;;;;;6.00;3.50;;;;;;;8.98;100.00;93164.03;5066117;28;20048;-77
2023/10/31 02:33:30;;;;;;;6.30;3.72;;;;;;;9.13;100.00;93197.13;5070264;28;20462;-77
2023/10/31 02:35:57;;;;;;;12.85;4.68;;;;;;;9.08;100.00;93195.16;5067008;28;20450;-77
2023/10/31 02:38:23;;;;;;;7.88;3.92;;;;;;;9.06;100.00;93201.47;5067088;28;20056;-77
2023/10/31 02:40:51;;;;;;;8.32;3.75;;;;;;;9.01;100.00;93193.56;5067156;28;20475;-77
2023/10/31 02:43:18;;;;;;;9.95;3.47;;;;;;;8.98;100.00;93191.44;5066557;28;21313;-77
2023/10/31 02:45:45;;;;;;;7.25;3.50;;;;;;;8.97;100.00;93195.00;5069355;28;20094;-77
2023/10/31 02:48:11;;;;;;;4.97;2.97;;;;;;;9.00;100.00;93192.81;5066236;28;20101;-77
2023/10/31 02:50:39;;;;;;;6.10;3.22;;;;;;;9.01;100.00;93191.81;5072249;28;20673;-76
2023/10/31 02:53:05;;;;;;;8.85;3.80;;;;;;;9.04;100.00;93200.88;5065563;28;20530;-76
2023/10/31 02:55:32;;;;;;;6.75;3.10;;;;;;;8.99;100.00;93198.13;5068303;28;20045;-77
2023/10/31 02:58:00;;;;;;;7.72;3.53;;;;;;;8.86;100.00;93178.44;5066778;28;20048;-76
2023/10/31 03:00:27;;;;;;;6.60;3.50;;;;;;;8.87;100.00;93188.50;5065958;28;20102;-77
2023/10/31 03:02:53;;;;;;;9.60;3.55;;;;;;;8.73;100.00;93184.34;5069969;28;20129;-77
2023/10/31 03:05:20;;;;;;;5.75;3.80;;;;;;;8.67;100.00;93180.84;5068142;28;20048;-77
2023/10/31 03:07:47;;;;;;;5.78;3.47;;;;;;;8.65;100.00;93177.66;5068391;28;20557;-77
2023/10/31 03:10:14;;;;;;;5.40;3.42;;;;;;;8.51;100.00;93164.84;5064324;28;20094;-75
2023/10/31 03:12:41;;;;;;;14.93;6.68;;;;;;;8.27;100.00;93179.00;5065893;28;20566;-75
2023/10/31 03:15:09;;;;;;;12.95;5.63;;;;;;;8.23;100.00;93175.25;5068698;28;20048;-75
2023/10/31 03:17:36;;;;;;;13.93;5.35;;;;;;;8.22;100.00;93164.25;5067473;28;20053;-75
2023/10/31 03:20:03;;;;;;;9.57;4.85;;;;;;;7.82;100.00;93105.38;5067091;28;20090;-74
2023/10/31 03:22:30;;;;;;;9.63;4.82;;;;;;;8.19;100.00;93151.06;5066834;28;20057;-75
2023/10/31 03:24:57;;;;;;;7.85;4.47;;;;;;;8.22;100.00;93153.22;5066894;28;20044;-75
2023/10/31 03:27:23;;;;;;;9.75;4.50;;;;;;;8.21;100.00;93149.91;5067208;28;20472;-75
2023/10/31 03:29:50;;;;;;;11.43;4.22;;;;;;;8.28;100.00;93147.31;5065811;28;20052;-76
2023/10/31 03:32:18;;;;;;;7.75;3.75;;;;;;;8.27;100.00;93145.75;5067003;28;20143;-76
2023/10/31 03:34:45;;;;;;;7.75;3.85;;;;;;;8.26;100.00;93147.53;5067872;28;20063;-76
2023/10/31 03:37:12;;;;;;;17.55;5.20;;;;;;;8.29;100.00;93147.13;5068416;28;20491;-77
2023/10/31 03:39:38;;;;;;;9.57;4.30;;;;;;;8.26;100.00;93155.22;5074100;28;20052;-76
2023/10/31 03:42:06;;;;;;;9.60;4.20;;;;;;;8.15;100.00;93145.56;5070193;28;20044;-77
2023/10/31 03:44:32;;;;;;;9.85;4.25;;;;;;;8.13;100.00;93142.41;5067503;28;20155;-77
2023/10/31 03:46:59;;;;;;;11.30;4.35;;;;;;;7.90;100.00;93107.75;5069153;28;20090;-77
2023/10/31 03:49:27;;;;;;;17.05;7.22;;;;;;;8.20;100.00;93162.88;5068349;28;20607;-77
2023/10/31 03:51:54;;;;;;;17.73;8.52;;;;;;;7.91;100.00;93157.91;5058733;28;20098;-77
2023/10/31 03:54:20;;;;;;;20.60;10.02;;;;;;;7.37;100.00;93104.13;5056613;28;20067;-77
2023/10/31 03:56:48;;;;;;;18.50;8.98;;;;;;;7.65;100.00;93156.88;5068997;28;20040;-77
2023/10/31 03:59:15;;;;;;;19.30;10.05;;;;;;;7.57;100.00;93154.50;5069946;28;20086;-78
2023/10/31 04:01:52;;;;;;;18.45;9.82;;;;;;;7.33;100.00;93120.81;5070522;28;20040;-77
2023/10/31 04:04:19;;;;;;;21.80;11.52;;;;;;;7.31;100.00;93121.00;5068987;28;20072;-76
2023/10/31 04:06:48;;;;;;;18.00;10.18;;;;;;;7.46;100.00;93131.06;5070566;28;20496;-76
2023/10/31 04:09:14;;;;;;;20.98;11.07;;;;;;;7.18;100.00;93095.41;5068933;28;20459;-77
2023/10/31 04:11:43;;;;;;;19.55;8.98;;;;;;;7.45;100.00;93128.72;5068634;28;20048;-77
2023/10/31 04:14:09;;;;;;;16.80;8.55;;;;;;;7.48;100.00;93120.66;5073470;28;20123;-77
2023/10/31 04:16:45;;;;;;;19.23;8.95;;;;;;;7.17;100.00;93074.16;5071563;28;20053;-76
2023/10/31 04:19:12;;;;;;;18.30;8.68;;;;;;;7.66;100.00;93132.09;5067257;28;20055;-76
2023/10/31 04:21:39;;;;;;;19.48;9.25;;;;;;;7.68;100.00;93130.91;5069373;28;20098;-76
2023/10/31 04:24:07;;;;;;;13.82;6.82;;;;;;;7.73;100.00;93112.47;5068792;28;20478;-76
2023/10/31 04:26:34;;;;;;;12.10;5.85;;;;;;;7.81;100.00;93111.47;5065945;28;20113;-77
2023/10/31 04:29:01;;;;;;;9.25;4.38;;;;;;;7.85;100.00;93104.97;5068290;28;20044;-78
2023/10/31 04:31:27;;;;;;;7.32;3.00;;;;;;;7.91;100.00;93091.41;5069042;28;20121;-77
2023/10/31 04:33:54;;;;;;;6.95;3.17;;;;;;;8.00;100.00;93095.38;5068471;28;20041;-78
2023/10/31 04:36:21;;;;;;;8.48;3.47;;;;;;;8.18;100.00;93108.56;5070528;28;20067;-76
2023/10/31 04:38:47;;;;;;;8.43;2.95;;;;;;;7.99;100.00;93080.22;5068661;28;20044;-76
2023/10/31 04:41:15;;;;;;;6.65;2.60;;;;;;;8.27;100.00;93118.41;5071299;28;20090;-76
2023/10/31 04:43:42;;;;;;;12.65;5.90;;;;;;;8.39;100.00;93131.38;5069690;28;20555;-77
2023/10/31 04:46:09;;;;;;;14.25;6.03;;;;;;;8.29;100.00;93139.44;5068304;28;20091;-76
2023/10/31 04:48:36;;;;;;;13.93;5.68;;;;;;;8.24;100.00;93141.81;5066855;28;20508;-76
2023/10/31 04:51:02;;;;;;;11.50;5.75;;;;;;;8.16;100.00;93147.13;5066866;28;20052;-76
2023/10/31 04:53:29;;;;;;;16.45;9.38;;;;;;;8.09;100.00;93139.44;5070473;28;20052;-76
2023/10/31 04:55:56;;;;;;;13.65;7.30;;;;;;;7.72;100.00;93093.75;5068831;28;20040;-76
2023/10/31 04:58:24;;;;;;;13.30;6.40;;;;;;;8.06;100.00;93144.16;5067546;28;20052;-76
2023/10/31 05:00:50;;;;;;;12.35;4.88;;;;;;;8.04;100.00;93146.91;5068929;28;20113;-77
2023/10/31 05:03:17;;;;;;;11.32;4.68;;;;;;;7.93;100.00;93112.47;5067131;28;20048;-77
2023/10/31 05:05:44;;;;;;;14.40;4.60;;;;;;;8.23;100.00;93147.13;5070400;28;20462;-77
2023/10/31 05:08:11;;;;;;;9.23;3.80;;;;;;;8.29;100.00;93141.25;5067678;28;20098;-77
2023/10/31 05:10:38;;;;;;;10.88;4.70;;;;;;;8.33;100.00;93149.31;5067816;28;20056;-77
2023/10/31 05:13:04;;;;;;;10.13;3.90;;;;;;;8.34;100.00;93145.75;5066007;28;20052;-77
2023/10/31 05:15:33;;;;;;;8.63;3.97;;;;;;;8.31;100.00;93141.03;5067066;28;20548;-77
2023/10/31 05:18:00;;;;;;;8.15;3.97;;;;;;;8.37;100.00;93148.72;5067410;28;20052;-77
2023/10/31 05:20:26;;;;;;;35.50;13.50;;;;;;;8.38;100.00;93152.84;5066746;28;20045;-77
2023/10/31 05:22:53;;;;;;;27.80;15.07;;;;;;;8.10;100.00;93132.56;5069061;28;20417;-76
2023/10/31 05:25:20;;;;;;;22.40;11.40;;;;;;;8.19;100.00;93151.84;5067908;28;20044;-77
2023/10/31 05:27:48;;;;;;;10.88;5.55;;;;;;;8.24;100.00;93152.03;5065478;28;20048;-77
2023/10/31 05:30:15;;;;;;;8.57;4.63;;;;;;;8.32;100.00;93145.94;5063541;28;20090;-77
2023/10/31 05:32:44;;;;;;;7.63;4.68;;;;;;;8.55;100.00;93153.25;5064031;28;20114;-77
2023/10/31 05:35:11;;;;;;;8.82;3.45;;;;;;;8.57;100.00;93158.19;5065486;28;20044;-76
2023/10/31 05:37:38;;;;;;;9.63;2.90;;;;;;;8.53;100.00;93168.00;5070980;28;20048;-76
2023/10/31 05:40:05;;;;;;;4.95;2.65;;;;;;;8.39;100.00;93159.53;5065407;28;20044;-75
2023/10/31 05:42:32;;;;;;;7.00;3.30;;;;;;;8.64;100.00;93178.66;5073251;28;20098;-76
2023/10/31 05:44:59;;;;;;;6.22;2.22;;;;;;;8.69;100.00;93174.53;5066933;28;20119;-76
2023/10/31 05:47:27;;;;;;;5.90;2.88;;;;;;;8.77;100.00;93165.84;5066473;28;20076;-76
2023/10/31 05:49:55;;;;;;;5.57;2.50;;;;;;;8.82;100.00;93171.16;5068487;28;20047;-75
2023/10/31 05:52:22;;;;;;;8.82;2.90;;;;;;;8.82;100.00;93166.03;5067099;28;20068;-76
2023/10/31 05:54:49;;;;;;;6.03;2.60;;;;;;;8.80;100.00;93150.06;5068956;28;20507;-76
2023/10/31 05:57:15;;;;;;;8.27;2.60;;;;;;;9.01;100.00;93185.91;5067022;28;20097;-76
2023/10/31 05:59:42;;;;;;;7.20;3.17;;;;;;;9.07;100.00;93185.88;5065342;28;20114;-76
2023/10/31 06:02:10;;;;;;;8.82;2.58;;;;;;;9.15;100.00;93189.22;5066805;28;20526;-76
2023/10/31 06:04:36;;;;;;;6.80;2.97;;;;;;;8.95;100.00;93151.63;5063177;28;20048;-76
2023/10/31 06:07:05;;;;;;;5.78;2.65;;;;;;;9.35;100.00;93189.94;5069349;28;20139;-76
2023/10/31 06:09:33;;;;;;;7.18;1.95;;;;;;;9.52;100.00;93189.50;5067188;28;20098;-76
2023/10/31 06:11:59;;;;;;;4.88;2.20;;;;;;;9.62;100.00;93194.19;5066254;28;20497;-76
2023/10/31 06:14:26;;;;;;;3.45;1.65;;;;;;;9.80;100.00;93192.72;5069053;28;20508;-75
2023/10/31 06:16:53;;;;;;;7.70;1.85;;;;;;;9.94;100.00;93188.31;5069443;28;20415;-76
2023/10/31 06:19:20;;;;;;;6.47;1.90;;;;;;;10.14;100.00;93191.56;5066661;28;20048;-76
2023/10/31 06:21:49;;;;;;;4.13;1.98;;;;;;;10.34;98.30;93187.28;5067447;28;20047;-76
2023/10/31 06:24:17;;;;;;;5.63;1.48;;;;;;;10.54;95.68;93193.09;5067379;28;20063;-76
2023/10/31 06:26:44;;;;;;;7.05;1.63;;;;;;;10.69;96.27;93199.69;5070631;28;20084;-76
2023/10/31 06:29:10;;;;;;;3.92;1.60;;;;;;;10.93;96.72;93205.81;5061907;28;20117;-76
2023/10/31 06:31:37;;;;;;;6.65;2.15;;;;;;;11.17;96.05;93193.16;5067612;28;20185;-76
2023/10/31 06:34:04;;;;;;;5.10;1.48;;;;;;;11.34;95.19;93187.44;5066613;28;20048;-76
2023/10/31 06:36:31;;;;;;;3.00;1.30;;;;;;;11.54;94.63;93189.81;5067009;28;20099;-76
2023/10/31 06:38:58;;;;;;;2.05;0.90;;;;;;;11.81;92.72;93199.75;5069772;28;20443;-76
2023/10/31 06:41:26;;;;;;;3.47;1.30;;;;;;;12.00;91.33;93190.19;5066570;28;20060;-76
2023/10/31 06:43:53;;;;;;;4.15;1.85;;;;;;;12.33;89.59;93195.94;5068616;28;20117;-76
2023/10/31 06:46:20;;;;;;;3.35;1.92;;;;;;;12.62;86.71;93197.88;5070184;28;20045;-76
2023/10/31 06:48:46;;;;;;;3.95;1.30;;;;;;;12.87;84.37;93200.25;5066506;28;20041;-76
2023/10/31 06:51:13;;;;;;;5.03;1.42;;;;;;;13.07;83.66;93205.09;5070465;28;20559;-76
2023/10/31 06:53:40;;;;;;;6.70;1.92;;;;;;;13.20;82.50;93185.25;5069218;28;20049;-76
2023/10/31 06:56:07;;;;;;;5.35;1.63;;;;;;;13.49;82.97;93199.03;5065356;28;20040;-75
2023/10/31 06:58:35;;;;;;;3.67;1.23;;;;;;;13.75;81.62;93196.16;5060022;28;20048;-76
2023/10/31 07:01:03;;;;;;;6.47;1.70;;;;;;;14.01;81.02;93194.03;5060265;28;20041;-75
2023/10/31 07:03:29;;;;;;;8.88;1.92;;;;;;;14.23;80.33;93194.16;5058892;28;21876;-75
2023/10/31 07:05:56;;;;;;;6.32;1.60;;;;;;;14.45;79.95;93197.88;5060747;28;20048;-75
2023/10/31 07:08:23;;;;;;;4.20;1.85;;;;;;;14.62;80.18;93190.13;5063728;28;20059;-75
2023/10/31 07:10:50;;;;;;;8.20;2.15;;;;;;;14.80;80.22;93187.34;5064131;28;20452;-75
2023/10/31 07:13:17;;;;;;;7.25;1.63;;;;;;;14.81;78.96;93163.03;5066252;28;20041;-75
2023/10/31 07:15:46;;;;;;;4.57;1.75;;;;;;;15.02;78.49;93178.84;5063691;28;20156;-76
2023/10/31 07:18:13;;;;;;;5.00;1.30;;;;;;;15.23;77.43;93179.13;5064923;28;20051;-75
2023/10/31 07:20:40;;;;;;;5.45;1.27;;;;;;;15.40;77.65;93175.69;5068266;28;20484;-75
2023/10/31 07:23:06;;;;;;;3.45;1.35;;;;;;;15.55;76.87;93167.34;5072114;28;20049;-75
2023/10/31 07:25:33;;;;;;;6.05;1.40;;;;;;;15.66;76.53;93173.41;5069919;28;20044;-76
2023/10/31 07:28:00;;;;;;;3.33;1.23;;;;;;;15.78;76.32;93166.28;5071464;28;20052;-75
2023/10/31 07:30:26;;;;;;;6.95;2.63;;;;;;;16.05;76.16;93168.16;5071961;28;20516;-75
2023/10/31 07:32:54;;;;;;;6.70;1.63;;;;;;;16.11;74.97;93153.44;5070832;28;20053;-76
2023/10/31 07:35:21;;;;;;;6.38;2.08;;;;;;;16.45;72.92;93173.16;5069052;28;20064;-76
2023/10/31 07:37:48;;;;;;;6.07;1.58;;;;;;;16.61;71.57;93179.28;5069120;28;20729;-75
2023/10/31 07:40:15;;;;;;;3.95;1.33;;;;;;;16.70;69.72;93178.56;5073052;28;20519;-76
2023/10/31 07:42:42;;;;;;;4.45;1.38;;;;;;;16.82;70.81;93162.03;5068916;28;20049;-76
2023/10/31 07:45:10;;;;;;;3.90;1.38;;;;;;;16.98;70.60;93175.88;5068999;28;20128;-76
2023/10/31 07:47:37;;;;;;;5.65;1.58;;;;;;;17.07;70.27;93166.63;5071265;28;20428;-76
2023/10/31 07:50:05;;;;;;;3.67;1.30;;;;;;;17.18;69.84;93164.09;5069314;28;20090;-74
2023/10/31 07:52:32;;;;;;;4.45;1.55;;;;;;;17.32;69.25;93167.78;5071358;28;20504;-75
2023/10/31 07:54:59;;;;;;;5.63;1.20;;;;;;;17.43;68.20;93173.03;5069968;28;20052;-75
2023/10/31 07:57:26;;;;;;;3.72;1.23;;;;;;;17.53;67.80;93167.13;5070354;28;20048;-76
2023/10/31 07:59:52;;;;;;;4.82;1.48;;;;;;;17.60;65.76;93162.47;5070478;28;20044;-75
2023/10/31 08:02:19;;;;;;;6.00;1.55;;;;;;;17.63;66.66;93167.94;5068438;28;20049;-76
2023/10/31 08:04:46;;;;;;;4.90;2.15;;;;;;;17.67;66.40;93159.63;5067208;28;20040;-75
2023/10/31 08:07:14;;;;;;;4.72;1.60;;;;;;;17.86;66.05;93163.31;5068005;28;20354;-76
2023/10/31 08:09:40;;;;;;;4.18;1.10;;;;;;;18.00;64.22;93166.22;5067068;28;20052;-76
2023/10/31 08:12:08;;;;;;;3.70;1.40;;;;;;;18.06;64.47;93168.81;5061847;28;20114;-76
2023/10/31 08:14:34;;;;;;;5.38;1.48;;;;;;;18.10;64.20;93160.28;5066727;28;20117;-75
2023/10/31 08:17:01;;;;;;;6.00;1.63;;;;;;;18.28;63.70;93166.00;5068319;28;20121;-76
2023/10/31 08:19:28;;;;;;;5.72;1.38;;;;;;;18.22;62.69;93154.03;5068321;28;20138;-75
2023/10/31 08:21:55;;;;;;;4.85;1.27;;;;;;;18.29;62.59;93160.56;5068350;28;20462;-75
2023/10/31 08:24:23;;;;;;;8.30;1.98;;;;;;;18.43;62.51;93147.06;5070211;28;20044;-76
2023/10/31 08:26:49;;;;;;;6.03;1.80;;;;;;;18.56;61.38;93159.53;5068757;28;20045;-76
2023/10/31 08:29:16;;;;;;;5.95;1.52;;;;;;;18.68;60.00;93146.28;5071432;28;20088;-76
2023/10/31 08:31:43;;;;;;;5.40;1.05;;;;;;;18.79;59.85;93154.84;5067864;28;20048;-76
2023/10/31 08:34:10;;;;;;;8.15;1.90;;;;;;;18.81;59.79;93149.38;5071695;28;20048;-76
2023/10/31 08:36:36;;;;;;;4.43;1.50;;;;;;;18.85;58.67;93141.81;5069680;28;20049;-75
2023/10/31 08:39:04;;;;;;;4.22;1.00;;;;;;;18.78;58.91;93110.84;5070900;28;20048;-75
2023/10/31 08:41:32;;;;;;;3.20;0.82;;;;;;;18.89;56.48;93122.03;5069237;28;20048;-75
2023/10/31 08:43:59;;;;;;;2.88;0.93;;;;;;;18.96;58.31;93133.75;5068345;28;20549;-75
2023/10/31 08:46:26;;;;;;;3.90;1.35;;;;;;;18.93;57.10;93095.22;5070638;28;20457;-75
2023/10/31 08:48:53;;;;;;;4.03;1.15;;;;;;;19.03;56.78;93125.66;5063308;28;20075;-75
2023/10/31 08:51:19;;;;;;;4.28;1.40;;;;;;;19.08;55.27;93109.28;5062263;28;20075;-76
2023/10/31 08:53:46;;;;;;;4.97;0.98;;;;;;;19.17;56.42;93112.88;5061804;28;20063;-75
2023/10/31 08:56:13;;;;;;;4.63;1.55;;;;;;;19.19;55.59;93097.78;5061529;28;20080;-75
2023/10/31 08:58:41;;;;;;;4.00;1.20;;;;;;;19.13;55.36;93100.66;5061195;28;20048;-75
2023/10/31 09:01:07;;;;;;;4.35;1.35;;;;;;;19.22;55.55;93097.22;5061189;28;20094;-75
2023/10/31 09:03:34;;;;;;;7.05;1.15;;;;;;;19.30;55.22;93093.28;5062224;28;20137;-75
2023/10/31 09:06:02;;;;;;;5.32;1.02;;;;;;;19.26;55.26;93086.28;5062263;28;20052;-75
2023/10/31 09:08:28;;;;;;;3.25;1.10;;;;;;;19.38;55.14;93091.19;5061839;28;20049;-75
2023/10/31 09:10:55;;;;;;;2.60;1.10;;;;;;;19.57;53.58;93094.75;5062373;28;20102;-75
2023/10/31 09:13:22;;;;;;;4.38;1.38;;;;;;;19.48;54.03;93091.91;5062168;28;20084;-75
2023/10/31 09:15:50;;;;;;;4.47;1.63;;;;;;;19.54;53.34;93090.09;5061944;28;20125;-75
2023/10/31 09:18:17;;;;;;;7.97;1.20;;;;;;;19.57;52.55;93081.72;5062945;28;20050;-75
2023/10/31 09:20:44;;;;;;;8.90;2.30;;;;;;;19.69;53.05;93086.63;5060943;28;20079;-75
2023/10/31 09:23:11;;;;;;;4.40;1.17;;;;;;;19.74;52.38;93083.19;5062220;28;20052;-75
2023/10/31 09:25:37;;;;;;;4.28;1.05;;;;;;;19.84;52.64;93082.34;5061672;28;20052;-75
2023/10/31 09:28:04;;;;;;;4.35;1.35;;;;;;;19.81;52.08;93070.63;5062196;28;20090;-75
2023/10/31 09:30:31;;;;;;;4.75;1.38;;;;;;;19.92;51.90;93060.94;5062049;28;20106;-75
2023/10/31 09:32:59;;;;;;;6.75;1.00;;;;;;;20.02;51.13;93063.50;5058455;28;20401;-76
2023/10/31 09:35:26;;;;;;;4.63;1.15;;;;;;;20.11;51.97;93047.25;5067036;28;20140;-75
2023/10/31 09:37:53;;;;;;;4.90;1.20;;;;;;;20.06;51.71;93040.25;5062235;28;20048;-75
2023/10/31 09:40:20;;;;;;;2.92;1.17;;;;;;;20.25;51.23;93045.59;5062669;28;20126;-75
2023/10/31 09:42:48;;;;;;;6.40;1.50;;;;;;;20.37;50.62;93034.75;5062125;28;20053;-76
2023/10/31 09:45:16;;;;;;;5.18;1.95;;;;;;;20.42;49.48;93008.63;5061931;28;20494;-75
2023/10/31 09:47:43;;;;;;;5.63;1.40;;;;;;;20.64;49.93;93035.31;5059946;28;20060;-76
2023/10/31 09:50:12;;;;;;;3.15;0.98;;;;;;;20.52;49.06;93020.03;5061778;28;20052;-75
2023/10/31 09:52:39;;;;;;;3.65;0.70;;;;;;;20.47;49.05;93020.09;5060501;28;20097;-75
2023/10/31 09:55:07;;;;;;;3.75;0.98;;;;;;;20.59;49.50;93019.72;5062532;28;20084;-76
2023/10/31 09:57:34;;;;;;;4.85;1.35;;;;;;;20.68;49.15;93011.00;5060890;28;20051;-75
2023/10/31 10:00:01;;;;;;;4.78;1.10;;;;;;;20.70;48.35;93008.88;5061842;28;20469;-75
2023/10/31 10:02:27;;;;;;;4.95;1.10;;;;;;;20.64;48.41;92996.94;5061696;28;20055;-75
2023/10/31 10:04:54;;;;;;;3.95;1.17;;;;;;;20.63;48.23;92997.22;5060623;28;20057;-75
2023/10/31 10:07:22;;;;;;;3.03;1.08;;;;;;;20.72;48.57;92986.94;5063970;28;20121;-76
2023/10/31 10:09:49;;;;;;;4.50;0.90;;;;;;;20.87;47.78;92996.47;5062111;28;20665;-75
2023/10/31 10:12:17;;;;;;;3.72;0.90;;;;;;;20.91;47.15;92977.34;5060694;28;20104;-75
2023/10/31 10:14:46;;;;;;;3.83;0.85;;;;;;;20.80;46.46;92971.47;5061775;28;20420;-75
2023/10/31 10:17:17;;;;;;;4.00;0.98;;;;;;;20.87;47.25;92984.19;5061191;28;20133;-75
2023/10/31 10:19:44;;;;;;;4.10;1.20;;;;;;;20.86;47.60;92980.03;5061207;28;20048;-75
2023/10/31 10:22:11;;;;;;;7.30;1.63;;;;;;;20.63;46.15;92961.47;5061312;28;20106;-75
2023/10/31 10:24:42;;;;;;;4.32;1.35;;;;;;;20.72;46.35;92973.88;5061143;28;20135;-75
2023/10/31 10:27:09;;;;;;;5.88;1.02;;;;;;;20.77;46.48;92973.81;5062018;28;20125;-75
2023/10/31 10:29:36;;;;;;;4.03;1.20;;;;;;;20.74;46.42;92937.84;5061049;28;20048;-75
2023/10/31 10:32:08;;;;;;;3.90;1.00;;;;;;;20.77;45.19;92952.94;5060772;28;20060;-75
2023/10/31 10:34:34;;;;;;;4.60;1.27;;;;;;;20.87;45.05;92957.31;5060775;28;20079;-75
2023/10/31 10:37:05;;;;;;;13.43;1.40;;;;;;;20.96;44.44;92953.00;5061750;28;20147;-75
2023/10/31 10:39:34;;;;;;;5.70;1.13;;;;;;;21.08;44.10;92950.78;5062139;28;20060;-75
2023/10/31 10:42:05;;;;;;;3.97;0.90;;;;;;;21.05;43.70;92934.88;5064042;28;20519;-76
2023/10/31 10:44:34;;;;;;;2.85;0.93;;;;;;;21.04;43.15;92943.78;5064368;28;20110;-75
2023/10/31 10:47:04;;;;;;;4.60;1.90;;;;;;;21.06;43.66;92931.22;5067972;28;20564;-75
2023/10/31 10:49:35;;;;;;;3.38;1.10;;;;;;;21.04;42.66;92933.31;5069010;28;20084;-75
2023/10/31 10:52:18;;;;;;;2.58;0.90;;;;;;;21.08;42.25;92927.28;5069373;28;20463;-75
2023/10/31 10:54:52;;;;;;;3.13;1.52;;;;;;;21.00;43.10;92932.31;5069823;28;20078;-75
2023/10/31 10:57:26;;;;;;;5.53;1.20;;;;;;;20.96;42.97;92919.06;5069124;28;20044;-75
2023/10/31 10:59:59;;;;;;;7.75;1.95;;;;;;;20.89;43.36;92914.22;5067628;28;20044;-75
2023/10/31 11:02:26;;;;;;;4.70;1.35;;;;;;;20.82;43.73;92903.28;5067370;28;20098;-76
2023/10/31 11:04:54;;;;;;;8.27;1.40;;;;;;;20.83;43.70;92902.25;5069071;28;20057;-75
2023/10/31 11:07:23;;;;;;;5.95;1.60;;;;;;;20.82;44.32;92905.91;5069410;28;20093;-75
2023/10/31 11:09:50;;;;;;;4.72;1.25;;;;;;;20.84;44.81;92890.75;5068269;28;20053;-76
2023/10/31 11:12:17;;;;;;;5.47;1.33;;;;;;;20.88;44.85;92888.38;5066816;28;20079;-76
2023/10/31 11:14:46;;;;;;;7.03;1.30;;;;;;;20.89;44.78;92885.50;5066586;28;20048;-76
2023/10/31 11:17:23;;;;;;;4.53;0.73;;;;;;;20.92;45.27;92873.72;5067013;28;20057;-76
2023/10/31 11:19:50;;;;;;;4.72;0.80;;;;;;;20.94;44.37;92869.75;5068574;28;20145;-76
2023/10/31 11:22:18;;;;;;;6.10;1.23;;;;;;;20.91;44.12;92839.00;5066783;28;20056;-76
2023/10/31 11:24:45;;;;;;;5.72;1.20;;;;;;;20.87;41.71;92850.28;5067081;28;20059;-75
2023/10/31 11:27:12;;;;;;;2.42;1.35;;;;;;;20.93;41.44;92852.53;5065367;28;20044;-75
2023/10/31 11:29:38;;;;;;;4.80;0.90;;;;;;;20.93;42.73;92836.84;5066388;28;20040;-75
2023/10/31 11:32:09;;;;;;;2.83;0.82;;;;;;;20.87;42.20;92834.63;5065512;28;20107;-75